Time;durP1;ratioP1;P1;durP2;ratioP2;P2;SDS_P1;SDS_P2;PMS_P1;PMS_P2;Temp;Humidity;BMP_temperature;BMP_pressure;BME280_temperature;BME280_humidity;BME280_pressure;Samples;Min_cycle;Max_cycle;Signal;HPM_P1;HPM_P2
2022/09/01 00:02:07;;;;;;;0.10;0.10;;;15.40;99.90;;;;;;5033416;28;20045;-72
2022/09/01 00:04:35;;;;;;;0.20;0.20;;;15.30;99.90;;;;;;5017191;28;20044;-72
2022/09/01 00:07:00;;;;;;;0.20;0.15;;;15.40;99.90;;;;;;5033427;28;20044;-72
2022/09/01 00:09:26;;;;;;;0.80;0.20;;;15.30;99.90;;;;;;5033262;28;20044;-72
2022/09/01 00:11:53;;;;;;;0.35;0.20;;;15.30;99.90;;;;;;5017149;28;20079;-72
2022/09/01 00:14:23;;;;;;;0.10;0.10;;;15.30;99.90;;;;;;5016374;28;20114;-72
2022/09/01 00:16:49;;;;;;;0.10;0.10;;;15.30;99.90;;;;;;5016456;28;20068;-72
2022/09/01 00:19:14;;;;;;;0.30;0.17;;;15.20;99.90;;;;;;5016694;28;20103;-79
2022/09/01 00:21:43;;;;;;;0.10;0.10;;;15.30;99.90;;;;;;5016654;28;20063;-72
2022/09/01 00:24:10;;;;;;;0.77;0.35;;;15.30;99.90;;;;;;5033193;28;20499;-71
2022/09/01 00:26:36;;;;;;;0.10;0.10;;;15.20;99.90;;;;;;5016538;28;20144;-72
2022/09/01 00:29:02;;;;;;;;;;;15.20;99.90;;;;;;5033437;28;20041;-73
2022/09/01 00:31:28;;;;;;;0.13;0.13;;;15.10;99.90;;;;;;5033009;28;19928;-72
2022/09/01 00:33:54;;;;;;;0.30;0.30;;;15.20;99.90;;;;;;5032812;28;20060;-72
2022/09/01 00:36:20;;;;;;;0.20;0.20;;;15.10;99.90;;;;;;5032986;28;20055;-72
2022/09/01 00:38:47;;;;;;;0.70;0.22;;;15.10;99.90;;;;;;5032800;28;20049;-71
2022/09/01 00:41:14;;;;;;;0.20;0.20;;;15.10;99.90;;;;;;5016436;28;20041;-77
2022/09/01 00:44:01;;;;;;;0.40;0.20;;;15.00;99.90;;;;;;5033194;28;20381;-72
2022/09/01 00:46:36;;;;;;;0.20;0.10;;;15.00;99.90;;;;;;5017073;28;20098;-71
2022/09/01 00:49:16;;;;;;;0.10;0.10;;;15.00;99.90;;;;;;5032829;28;20056;-71
2022/09/01 00:51:46;;;;;;;0.20;0.20;;;15.00;99.90;;;;;;5032872;28;20075;-72
2022/09/01 00:54:16;;;;;;;0.38;0.30;;;14.90;99.90;;;;;;5032667;28;20055;-72
2022/09/01 00:56:44;;;;;;;0.75;0.40;;;14.90;99.90;;;;;;5032861;28;20550;-79
2022/09/01 00:59:11;;;;;;;0.10;0.10;;;14.90;99.90;;;;;;5032751;28;20049;-78
2022/09/01 01:01:37;;;;;;;0.28;0.20;;;14.90;99.90;;;;;;5016664;28;20439;-79
2022/09/01 01:04:05;;;;;;;0.47;0.30;;;14.80;99.90;;;;;;5032894;28;20133;-72
2022/09/01 01:06:32;;;;;;;0.40;0.20;;;14.90;99.90;;;;;;5032654;28;20056;-79
2022/09/01 01:08:59;;;;;;;0.32;0.20;;;14.90;99.90;;;;;;5032878;28;20053;-79
2022/09/01 01:11:31;;;;;;;0.20;0.20;;;14.90;99.90;;;;;;5032718;28;20060;-78
2022/09/01 01:14:11;;;;;;;0.38;0.10;;;14.90;99.90;;;;;;5032957;28;20053;-78
2022/09/01 01:16:43;;;;;;;0.15;0.15;;;14.90;99.90;;;;;;5032824;28;20477;-79
2022/09/01 01:25:17;;;;;;;0.28;0.20;;;15.00;99.90;;;;;;5032609;28;20051;-78
2022/09/01 01:27:43;;;;;;;;;;;15.00;99.90;;;;;;5019737;28;20519;-78
2022/09/01 01:30:11;;;;;;;0.10;0.10;;;15.00;99.90;;;;;;5036361;28;19916;-78
2022/09/01 01:32:41;;;;;;;0.13;0.13;;;15.00;99.90;;;;;;5036505;28;20048;-72
2022/09/01 01:35:13;;;;;;;0.17;0.17;;;15.00;99.90;;;;;;5035824;28;20075;-72
2022/09/01 01:37:45;;;;;;;0.10;0.10;;;15.00;99.90;;;;;;5036030;28;20056;-73
2022/09/01 01:40:14;;;;;;;0.10;0.10;;;15.00;99.90;;;;;;5036326;28;20123;-72
2022/09/01 01:42:51;;;;;;;0.00;0.00;;;15.00;99.90;;;;;;5035962;28;20041;-72
2022/09/01 01:45:21;;;;;;;0.10;0.10;;;15.00;99.90;;;;;;5053934;28;20049;-72
2022/09/01 01:47:52;;;;;;;0.20;0.20;;;15.00;99.90;;;;;;5036186;28;20047;-78
2022/09/01 01:50:32;;;;;;;0.00;0.00;;;15.00;99.90;;;;;;5035849;28;20126;-78
2022/09/01 01:52:58;;;;;;;0.63;0.20;;;15.00;99.90;;;;;;5035776;28;20044;-71
2022/09/01 01:55:27;;;;;;;0.40;0.20;;;15.00;99.90;;;;;;5035843;28;20055;-71
2022/09/01 01:57:53;;;;;;;1.77;0.30;;;15.10;99.90;;;;;;5035787;28;20049;-71
2022/09/01 02:00:23;;;;;;;0.25;0.20;;;15.00;99.90;;;;;;5035636;28;20048;-72
2022/09/01 02:02:53;;;;;;;0.10;0.10;;;15.00;99.90;;;;;;5035924;28;20384;-71
2022/09/01 02:05:26;;;;;;;0.00;0.00;;;15.00;99.90;;;;;;5035662;28;20048;-71
2022/09/01 02:07:58;;;;;;;0.00;0.00;;;15.10;99.90;;;;;;5018979;28;20071;-78
2022/09/01 02:10:26;;;;;;;0.05;0.05;;;15.10;99.90;;;;;;5035846;28;20403;-78
2022/09/01 02:12:52;;;;;;;0.10;0.10;;;15.10;99.90;;;;;;5035614;28;20059;-78
2022/09/01 02:15:18;;;;;;;0.00;0.00;;;15.10;99.90;;;;;;5019324;28;20048;-78
2022/09/01 02:17:44;;;;;;;0.17;0.17;;;15.10;99.90;;;;;;5035365;28;20053;-79
2022/09/01 02:20:10;;;;;;;0.10;0.10;;;15.00;99.90;;;;;;5018853;28;20045;-79
2022/09/01 02:22:42;;;;;;;0.30;0.10;;;15.00;99.90;;;;;;5035904;28;20053;-78
2022/09/01 02:25:08;;;;;;;0.20;0.20;;;15.10;99.90;;;;;;5019801;28;20400;-78
2022/09/01 02:27:35;;;;;;;0.10;0.10;;;15.00;99.90;;;;;;5035496;28;20049;-78
2022/09/01 02:30:02;;;;;;;0.10;0.10;;;15.00;99.90;;;;;;5035050;28;20462;-78
2022/09/01 02:32:28;;;;;;;0.30;0.10;;;15.00;99.90;;;;;;5018424;28;20044;-78
2022/09/01 02:35:00;;;;;;;0.30;0.20;;;15.00;99.90;;;;;;5034919;28;20060;-78
2022/09/01 02:37:26;;;;;;;0.32;0.20;;;15.00;99.90;;;;;;5002679;28;20103;-78
2022/09/01 02:39:52;;;;;;;0.30;0.20;;;14.90;99.90;;;;;;5035230;28;20057;-78
2022/09/01 02:42:24;;;;;;;0.13;0.10;;;15.00;99.90;;;;;;5034973;28;20045;-79
2022/09/01 02:44:50;;;;;;;0.15;0.10;;;15.00;99.90;;;;;;5034795;28;20048;-77
2022/09/01 02:47:16;;;;;;;0.20;0.20;;;15.00;99.90;;;;;;5002318;28;20049;-78
2022/09/01 02:49:41;;;;;;;0.40;0.20;;;14.90;99.90;;;;;;5035212;28;20055;-78
2022/09/01 02:52:07;;;;;;;0.85;0.17;;;14.90;99.90;;;;;;5034952;28;20072;-78
2022/09/01 02:54:33;;;;;;;0.20;0.10;;;14.90;99.90;;;;;;5034746;28;20452;-78
2022/09/01 02:57:00;;;;;;;0.15;0.13;;;14.80;99.90;;;;;;5017940;28;20044;-78
2022/09/01 02:59:29;;;;;;;0.20;0.20;;;14.70;99.90;;;;;;5034741;28;20080;-79
2022/09/01 03:01:56;;;;;;;0.20;0.10;;;14.80;99.90;;;;;;5018103;28;20594;-78
2022/09/01 03:04:23;;;;;;;0.28;0.20;;;14.70;99.90;;;;;;5034679;28;20045;-78
2022/09/01 03:06:52;;;;;;;0.20;0.10;;;14.70;99.90;;;;;;5034457;28;20048;-78
2022/09/01 03:09:18;;;;;;;0.10;0.10;;;14.70;99.90;;;;;;5034979;28;20045;-78
2022/09/01 03:11:46;;;;;;;;;;;14.60;99.90;;;;;;5034828;28;20083;-78
2022/09/01 03:14:13;;;;;;;0.15;0.15;;;14.60;99.90;;;;;;5067498;28;20394;-78
2022/09/01 03:16:38;;;;;;;0.10;0.10;;;14.50;99.90;;;;;;5034506;28;20105;-78
2022/09/01 03:19:09;;;;;;;0.13;0.13;;;14.50;99.90;;;;;;5033975;28;20431;-78
2022/09/01 03:21:41;;;;;;;0.10;0.10;;;14.50;99.90;;;;;;5034301;28;20049;-72
2022/09/01 03:24:09;;;;;;;0.20;0.13;;;14.50;99.90;;;;;;5034079;28;20092;-72
2022/09/01 03:26:35;;;;;;;0.13;0.10;;;14.50;99.90;;;;;;5034365;28;20563;-72
2022/09/01 03:29:01;;;;;;;;;;;14.50;99.90;;;;;;5018134;28;20095;-72
2022/09/01 03:31:28;;;;;;;0.25;0.20;;;14.50;99.90;;;;;;5033965;28;20330;-72
2022/09/01 03:33:55;;;;;;;0.13;0.10;;;14.50;99.90;;;;;;5033755;28;20052;-72
2022/09/01 03:36:23;;;;;;;0.10;0.00;;;14.50;99.90;;;;;;5033702;28;20065;-72
2022/09/01 03:38:51;;;;;;;0.10;0.10;;;14.50;99.90;;;;;;5033767;28;20049;-70
2022/09/01 03:41:24;;;;;;;0.20;0.10;;;14.40;99.90;;;;;;5033697;28;20044;-72
2022/09/01 03:43:53;;;;;;;0.10;0.10;;;14.40;99.90;;;;;;5033721;28;20044;-72
2022/09/01 03:46:20;;;;;;;0.10;0.10;;;14.40;99.90;;;;;;5017268;28;20040;-72
2022/09/01 03:48:57;;;;;;;0.15;0.10;;;14.40;99.90;;;;;;5016471;28;20079;-72
2022/09/01 03:51:24;;;;;;;0.30;0.22;;;14.40;99.90;;;;;;5033909;28;20085;-72
2022/09/01 03:53:56;;;;;;;0.40;0.20;;;14.50;99.90;;;;;;5033498;28;20520;-72
2022/09/01 03:56:24;;;;;;;0.10;0.10;;;14.50;99.90;;;;;;5034006;28;20076;-72
2022/09/01 03:58:50;;;;;;;0.10;0.10;;;14.50;99.90;;;;;;5033537;28;20094;-72
2022/09/01 04:01:18;;;;;;;0.65;0.20;;;14.50;99.90;;;;;;5033790;28;20525;-72
2022/09/01 04:03:47;;;;;;;0.25;0.20;;;14.50;99.90;;;;;;5033709;28;20408;-71
2022/09/01 04:06:14;;;;;;;0.43;0.20;;;14.50;99.90;;;;;;5033302;28;20041;-72
2022/09/01 04:08:40;;;;;;;0.10;0.10;;;14.50;99.90;;;;;;5033347;28;20044;-72
2022/09/01 04:11:22;;;;;;;0.10;0.10;;;14.50;99.90;;;;;;5016994;28;20047;-72
2022/09/01 04:13:49;;;;;;;0.10;0.10;;;14.50;99.90;;;;;;5033337;28;20053;-72
2022/09/01 04:19:24;;;;;;;0.10;0.10;;;14.40;99.90;;;;;;5051076;28;20111;-71
2022/09/01 04:21:55;;;;;;;0.03;0.03;;;14.40;99.90;;;;;;5033440;28;20041;-71
2022/09/01 04:24:23;;;;;;;0.10;0.10;;;14.40;99.90;;;;;;5033196;28;20045;-72
2022/09/01 04:26:50;;;;;;;0.10;0.10;;;14.30;99.90;;;;;;5051064;28;20115;-79
2022/09/01 04:29:18;;;;;;;0.10;0.10;;;14.30;99.90;;;;;;5033251;28;20157;-78
2022/09/01 04:31:47;;;;;;;0.10;0.10;;;14.20;99.90;;;;;;5033361;28;20197;-72
2022/09/01 04:34:13;;;;;;;0.10;0.10;;;14.20;99.90;;;;;;5032858;28;20055;-72
2022/09/01 04:36:44;;;;;;;0.10;0.10;;;14.20;99.90;;;;;;5033102;28;20049;-79
2022/09/01 04:39:11;;;;;;;0.22;0.10;;;14.20;99.90;;;;;;5032970;28;20045;-79
2022/09/01 04:41:39;;;;;;;0.10;0.10;;;14.20;99.90;;;;;;5032999;28;20182;-79
2022/09/01 04:44:06;;;;;;;0.00;0.00;;;14.10;99.90;;;;;;5033006;28;20041;-72
2022/09/01 04:46:35;;;;;;;0.05;0.05;;;14.10;99.90;;;;;;5033009;28;20049;-78
2022/09/01 04:49:08;;;;;;;0.10;0.10;;;14.10;99.90;;;;;;5032961;28;20168;-79
2022/09/01 04:51:38;;;;;;;0.20;0.20;;;14.00;99.90;;;;;;5032758;28;20041;-78
2022/09/01 04:54:08;;;;;;;0.20;0.20;;;14.00;99.90;;;;;;5032594;28;20044;-79
2022/09/01 04:56:34;;;;;;;0.28;0.20;;;14.00;99.90;;;;;;5033185;28;20427;-78
2022/09/01 04:59:00;;;;;;;0.10;0.10;;;14.00;99.90;;;;;;5032543;28;20045;-78
2022/09/01 05:01:26;;;;;;;;;;;14.00;99.90;;;;;;5036398;28;20041;-78
2022/09/01 05:04:00;;;;;;;0.20;0.20;;;14.00;99.90;;;;;;5036608;28;20004;-71
2022/09/01 05:06:27;;;;;;;0.40;0.20;;;14.00;99.90;;;;;;5036524;28;20073;-71
2022/09/01 05:08:57;;;;;;;0.28;0.10;;;14.00;99.90;;;;;;5020367;28;20052;-71
2022/09/01 05:11:24;;;;;;;0.10;0.10;;;14.00;99.90;;;;;;5054698;28;20051;-78
2022/09/01 05:13:56;;;;;;;0.10;0.10;;;14.00;99.90;;;;;;5036812;28;20045;-78
2022/09/01 05:16:24;;;;;;;0.28;0.10;;;14.00;99.90;;;;;;5020022;28;20503;-78
2022/09/01 05:18:55;;;;;;;0.20;0.20;;;14.00;99.90;;;;;;5036294;28;20051;-71
2022/09/01 05:21:27;;;;;;;0.22;0.20;;;14.00;99.90;;;;;;5036393;28;20121;-72
2022/09/01 05:23:53;;;;;;;0.20;0.20;;;14.00;99.90;;;;;;5036225;28;20120;-72
2022/09/01 05:26:20;;;;;;;;;;;14.00;99.90;;;;;;5020366;28;20045;-71
2022/09/01 05:28:48;;;;;;;0.20;0.20;;;14.00;99.90;;;;;;5036286;28;19920;-72
2022/09/01 05:31:18;;;;;;;0.10;0.10;;;14.00;99.90;;;;;;5036140;28;20053;-72
2022/09/01 05:33:48;;;;;;;0.17;0.17;;;14.00;99.90;;;;;;5036051;28;20056;-72
2022/09/01 05:36:16;;;;;;;0.85;0.30;;;14.00;99.90;;;;;;5035878;28;20072;-70
2022/09/01 05:38:43;;;;;;;0.20;0.20;;;14.10;99.90;;;;;;5019543;28;20048;-71
2022/09/01 05:41:13;;;;;;;0.20;0.20;;;14.10;99.90;;;;;;5035880;28;20037;-71
2022/09/01 05:43:45;;;;;;;0.20;0.20;;;14.20;99.90;;;;;;5036048;28;20063;-71
2022/09/01 05:46:16;;;;;;;0.95;0.20;;;14.20;99.90;;;;;;5035590;28;20552;-71
2022/09/01 05:48:48;;;;;;;0.20;0.20;;;14.30;99.90;;;;;;5035736;28;20488;-72
2022/09/01 05:51:18;;;;;;;0.20;0.10;;;14.40;99.90;;;;;;5019537;28;20045;-72
2022/09/01 05:53:46;;;;;;;0.10;0.10;;;14.50;99.90;;;;;;5035826;28;20045;-72
2022/09/01 05:56:13;;;;;;;0.30;0.25;;;14.50;99.90;;;;;;5035667;28;20049;-71
2022/09/01 05:58:44;;;;;;;1.20;0.30;;;14.60;99.90;;;;;;5019230;28;20103;-71
2022/09/01 06:01:20;;;;;;;0.85;0.40;;;14.60;99.90;;;;;;5020100;28;20045;-72
2022/09/01 06:03:53;;;;;;;0.80;0.40;;;14.80;99.90;;;;;;5035924;28;20448;-72
2022/09/01 06:06:21;;;;;;;0.85;0.40;;;14.80;99.90;;;;;;5035297;28;20480;-70
2022/09/01 06:08:49;;;;;;;0.50;0.50;;;14.80;99.90;;;;;;5035569;28;20512;-71
2022/09/01 06:11:16;;;;;;;1.42;0.57;;;14.90;99.90;;;;;;5035280;28;20391;-72
2022/09/01 06:13:46;;;;;;;0.40;0.40;;;14.90;99.90;;;;;;5034838;28;20049;-72
2022/09/01 06:16:15;;;;;;;0.40;0.40;;;15.00;99.90;;;;;;5035275;28;20091;-70
2022/09/01 06:18:42;;;;;;;0.93;0.30;;;14.90;99.90;;;;;;5035086;28;20056;-70
2022/09/01 06:21:13;;;;;;;0.20;0.20;;;14.90;99.90;;;;;;5035267;28;20048;-71
2022/09/01 06:23:41;;;;;;;0.57;0.35;;;14.90;99.90;;;;;;5034914;28;20087;-71
2022/09/01 06:26:16;;;;;;;0.20;0.20;;;14.90;99.90;;;;;;5035285;28;20486;-71
2022/09/01 06:28:42;;;;;;;0.25;0.20;;;14.90;99.90;;;;;;5035361;28;20056;-71
2022/09/01 06:31:09;;;;;;;0.55;0.30;;;15.30;99.90;;;;;;5035004;28;20507;-71
2022/09/01 06:33:34;;;;;;;0.40;0.30;;;15.90;99.90;;;;;;5035177;28;20167;-71
2022/09/01 06:36:02;;;;;;;0.52;0.40;;;16.40;99.90;;;;;;5018192;28;20592;-70
2022/09/01 06:38:28;;;;;;;0.35;0.13;;;16.40;99.90;;;;;;5034709;28;20053;-71
2022/09/01 06:41:03;;;;;;;0.47;0.30;;;16.40;99.90;;;;;;5034860;28;20052;-71
2022/09/01 06:43:29;;;;;;;0.50;0.22;;;16.50;99.90;;;;;;5018279;28;20079;-71
2022/09/01 06:45:55;;;;;;;0.20;0.20;;;16.50;99.90;;;;;;5034784;28;20503;-70
2022/09/01 06:48:22;;;;;;;0.45;0.20;;;16.50;99.90;;;;;;5018710;28;20041;-71
2022/09/01 06:50:48;;;;;;;1.00;0.40;;;16.40;99.90;;;;;;5052721;28;20392;-71
2022/09/01 06:53:17;;;;;;;0.30;0.30;;;16.30;99.90;;;;;;5018425;28;20041;-71
2022/09/01 06:55:47;;;;;;;0.20;0.20;;;16.20;99.90;;;;;;5018625;28;20136;-71
2022/09/01 06:58:14;;;;;;;0.20;0.20;;;16.10;99.90;;;;;;5034623;28;20045;-71
2022/09/01 07:00:41;;;;;;;0.40;0.20;;;16.10;99.90;;;;;;5034442;28;20501;-71
2022/09/01 07:03:09;;;;;;;0.40;0.30;;;16.10;99.90;;;;;;5034472;28;20214;-71
2022/09/01 07:05:55;;;;;;;0.15;0.10;;;16.10;99.90;;;;;;5034329;28;20048;-71
2022/09/01 07:08:22;;;;;;;0.38;0.10;;;16.10;99.90;;;;;;5034661;28;20110;-71
2022/09/01 07:10:50;;;;;;;0.20;0.10;;;16.20;99.90;;;;;;5017769;28;20408;-71
2022/09/01 07:13:24;;;;;;;0.30;0.20;;;16.20;99.90;;;;;;5034474;28;20049;-71
2022/09/01 07:15:54;;;;;;;0.30;0.30;;;16.20;99.90;;;;;;5034189;28;20052;-72
2022/09/01 07:18:23;;;;;;;0.63;0.20;;;16.30;99.90;;;;;;5034106;28;20587;-72
2022/09/01 07:20:51;;;;;;;0.20;0.13;;;16.30;99.90;;;;;;5034383;28;20045;-71
2022/09/01 07:23:18;;;;;;;0.10;0.10;;;16.50;99.90;;;;;;5033899;28;20125;-71
2022/09/01 07:25:47;;;;;;;0.28;0.20;;;16.70;99.90;;;;;;5051613;28;20045;-71
2022/09/01 07:28:14;;;;;;;0.30;0.22;;;16.90;99.90;;;;;;5017732;28;20057;-71
2022/09/01 07:30:47;;;;;;;0.28;0.20;;;17.00;99.90;;;;;;5033879;28;20044;-71
2022/09/01 07:33:14;;;;;;;0.95;0.20;;;17.00;99.90;;;;;;5034300;28;20130;-72
2022/09/01 07:35:41;;;;;;;0.52;0.32;;;17.10;99.90;;;;;;5033622;28;20136;-72
2022/09/01 07:38:08;;;;;;;0.40;0.20;;;17.20;99.90;;;;;;5017289;28;20049;-72
2022/09/01 07:40:37;;;;;;;0.40;0.20;;;17.20;99.90;;;;;;5033881;28;20118;-72
2022/09/01 07:43:07;;;;;;;0.22;0.20;;;17.20;99.90;;;;;;5033745;28;20146;-72
2022/09/01 07:45:36;;;;;;;0.40;0.20;;;17.30;99.90;;;;;;5033608;28;20075;-72
2022/09/01 07:48:05;;;;;;;0.20;0.20;;;17.40;99.90;;;;;;5017055;28;20138;-72
2022/09/01 07:50:35;;;;;;;0.20;0.10;;;17.40;99.90;;;;;;5051432;28;20107;-71
2022/09/01 07:53:03;;;;;;;0.30;0.20;;;17.80;99.90;;;;;;5033869;28;20052;-72
2022/09/01 07:55:30;;;;;;;0.50;0.10;;;18.30;99.90;;;;;;5017165;28;20040;-70
2022/09/01 07:57:58;;;;;;;0.22;0.20;;;19.00;99.90;;;;;;5017013;28;20037;-70
2022/09/01 08:00:24;;;;;;;0.20;0.20;;;19.70;99.90;;;;;;5033313;28;20136;-70
2022/09/01 08:02:51;;;;;;;0.10;0.10;;;19.80;99.90;;;;;;5033412;28;20116;-71
2022/09/01 08:05:21;;;;;;;0.20;0.15;;;19.80;99.90;;;;;;5033246;28;20104;-71
2022/09/01 08:07:48;;;;;;;0.40;0.20;;;19.80;99.90;;;;;;5033367;28;20055;-71
2022/09/01 08:10:15;;;;;;;0.28;0.28;;;19.90;99.90;;;;;;5017140;28;20041;-71
2022/09/01 08:12:41;;;;;;;0.63;0.30;;;20.30;99.90;;;;;;5033383;28;20052;-71
2022/09/01 08:15:08;;;;;;;;;;;20.50;99.90;;;;;;5017224;28;20041;-71
2022/09/01 08:17:35;;;;;;;1.00;0.30;;;20.60;99.90;;;;;;5033006;28;19921;-71
2022/09/01 08:20:02;;;;;;;0.75;0.20;;;20.80;99.90;;;;;;5033040;28;20080;-71
2022/09/01 08:22:28;;;;;;;0.45;0.35;;;20.80;99.40;;;;;;5033264;28;20068;-71
2022/09/01 08:24:54;;;;;;;0.98;0.30;;;21.00;99.50;;;;;;5032896;28;20095;-71
2022/09/01 08:27:19;;;;;;;;;;;21.10;98.90;;;;;;5017165;28;20077;-71
2022/09/01 08:29:45;;;;;;;0.35;0.20;;;21.20;98.90;;;;;;5033267;28;19917;-71
2022/09/01 08:32:11;;;;;;;;;;;21.40;98.40;;;;;;5016829;28;20454;-72
2022/09/01 08:34:37;;;;;;;0.68;0.25;;;21.20;98.10;;;;;;5032562;28;19924;-71
2022/09/01 08:37:05;;;;;;;0.73;0.20;;;21.50;97.60;;;;;;5016362;28;20045;-71
2022/09/01 08:39:31;;;;;;;0.38;0.30;;;21.70;97.40;;;;;;5032787;28;20493;-71
2022/09/01 08:42:01;;;;;;;0.65;0.30;;;21.70;97.40;;;;;;5032892;28;20049;-71
2022/09/01 08:44:40;;;;;;;0.40;0.28;;;21.90;97.10;;;;;;5032625;28;20520;-71
2022/09/01 08:47:10;;;;;;;0.80;0.28;;;22.20;97.40;;;;;;5032974;28;20095;-71
2022/09/01 08:49:38;;;;;;;0.20;0.20;;;22.30;96.90;;;;;;5032587;28;20209;-71
2022/09/01 08:52:25;;;;;;;0.47;0.30;;;22.50;96.80;;;;;;5032453;28;20315;-71
2022/09/01 08:55:06;;;;;;;0.38;0.20;;;22.40;97.20;;;;;;5032427;28;20041;-72
2022/09/01 08:57:35;;;;;;;0.45;0.20;;;22.60;96.90;;;;;;5032841;28;20434;-72
2022/09/01 09:00:01;;;;;;;0.10;0.10;;;22.70;96.90;;;;;;5032525;28;20496;-70
2022/09/01 09:02:38;;;;;;;0.20;0.20;;;22.60;96.50;;;;;;5032792;28;20059;-72
2022/09/01 09:05:21;;;;;;;0.20;0.20;;;22.70;96.90;;;;;;5016081;28;20127;-72
2022/09/01 09:08:11;;;;;;;0.20;0.20;;;22.70;96.50;;;;;;5032920;28;20115;-72
2022/09/01 09:10:48;;;;;;;0.30;0.20;;;22.80;96.00;;;;;;5032507;28;20095;-72
2022/09/01 09:13:52;;;;;;;0.40;0.10;;;23.00;96.30;;;;;;5032516;28;20052;-72
2022/09/01 09:16:27;;;;;;;0.17;0.10;;;23.00;98.10;;;;;;5032778;28;20053;-72
2022/09/01 09:19:01;;;;;;;0.55;0.20;;;23.10;95.80;;;;;;5032560;28;20120;-72
2022/09/01 09:21:31;;;;;;;0.30;0.20;;;23.20;96.00;;;;;;5032549;28;20098;-72
2022/09/01 09:24:09;;;;;;;0.20;0.20;;;23.20;95.80;;;;;;5032776;28;20040;-71
2022/09/01 09:26:34;;;;;;;0.40;0.20;;;23.30;95.90;;;;;;5032606;28;20106;-71
2022/09/01 09:29:01;;;;;;;0.15;0.10;;;23.40;96.50;;;;;;5050252;28;20508;-72
2022/09/01 09:32:01;;;;;;;0.35;0.22;;;23.40;96.00;;;;;;5032276;28;20400;-72
2022/09/01 09:34:31;;;;;;;0.43;0.22;;;23.50;96.00;;;;;;5006798;28;20084;-72
2022/09/01 09:37:15;;;;;;;0.25;0.20;;;23.50;95.20;;;;;;5032606;28;20468;-72
2022/09/01 09:39:41;;;;;;;1.15;0.40;;;23.60;97.70;;;;;;5032353;28;20114;-72
2022/09/01 09:42:11;;;;;;;0.60;0.38;;;23.50;95.60;;;;;;5032321;28;20041;-72
2022/09/01 09:44:44;;;;;;;0.47;0.30;;;23.50;94.80;;;;;;5032613;28;20079;-72
2022/09/01 09:47:30;;;;;;;0.43;0.17;;;23.40;95.10;;;;;;5033006;28;20106;-72
2022/09/01 09:50:14;;;;;;;0.20;0.20;;;23.50;94.70;;;;;;5035732;28;20052;-72
2022/09/01 09:52:42;;;;;;;0.45;0.30;;;23.70;94.80;;;;;;5036020;28;20438;-72
2022/09/01 09:55:29;;;;;;;0.25;0.15;;;23.70;94.20;;;;;;5035689;28;20087;-72
2022/09/01 09:58:00;;;;;;;0.30;0.20;;;23.90;94.70;;;;;;5035860;28;20381;-72
2022/09/01 10:00:33;;;;;;;0.30;0.30;;;23.70;93.20;;;;;;5035714;28;20092;-72
2022/09/01 10:03:08;;;;;;;0.22;0.22;;;23.80;93.70;;;;;;5019511;28;20131;-72
2022/09/01 10:05:47;;;;;;;0.40;0.30;;;23.80;93.60;;;;;;5035592;28;20102;-73
2022/09/01 10:08:25;;;;;;;0.35;0.22;;;23.70;93.20;;;;;;5035386;28;20044;-72
2022/09/01 10:10:51;;;;;;;0.55;0.13;;;23.80;94.20;;;;;;5035243;28;20048;-72
2022/09/01 10:13:20;;;;;;;0.65;0.30;;;23.90;93.20;;;;;;5035396;28;20132;-73
2022/09/01 10:15:49;;;;;;;0.17;0.13;;;24.00;93.60;;;;;;5035621;28;20094;-73
2022/09/01 10:18:18;;;;;;;0.60;0.30;;;24.10;93.30;;;;;;5053333;28;20049;-73
2022/09/01 10:21:36;;;;;;;0.20;0.20;;;24.10;92.50;;;;;;5018726;28;20045;-73
2022/09/01 10:24:16;;;;;;;;;;;24.10;92.40;;;;;;5018902;28;20056;-72
2022/09/01 10:26:46;;;;;;;0.75;0.20;;;24.20;92.60;;;;;;5035151;28;19963;-72
2022/09/01 10:29:17;;;;;;;0.70;0.30;;;24.30;92.60;;;;;;5018859;28;20087;-72
2022/09/01 10:31:43;;;;;;;0.43;0.32;;;24.40;92.30;;;;;;5035432;28;20799;-72
2022/09/01 10:34:16;;;;;;;0.47;0.25;;;24.40;92.10;;;;;;5034833;28;20083;-72
2022/09/01 10:36:44;;;;;;;0.40;0.38;;;24.60;92.50;;;;;;5035241;28;20447;-72
2022/09/01 10:39:13;;;;;;;0.65;0.22;;;24.80;92.60;;;;;;5034981;28;20133;-72
2022/09/01 10:41:49;;;;;;;0.45;0.30;;;24.90;92.10;;;;;;5053180;28;20037;-72
2022/09/01 10:44:32;;;;;;;0.38;0.22;;;24.30;92.40;;;;;;5034932;28;20052;-72
2022/09/01 10:47:06;;;;;;;0.17;0.17;;;23.80;92.40;;;;;;5035270;28;20077;-72
2022/09/01 10:49:32;;;;;;;0.47;0.20;;;23.80;92.40;;;;;;5052939;28;20044;-72
2022/09/01 10:51:58;;;;;;;0.17;0.17;;;23.50;92.50;;;;;;5034722;28;20045;-72
2022/09/01 10:54:39;;;;;;;0.35;0.35;;;23.30;92.50;;;;;;5034435;28;20106;-71
2022/09/01 10:57:08;;;;;;;0.22;0.20;;;23.10;92.40;;;;;;5034659;28;20045;-72
2022/09/01 10:59:34;;;;;;;0.30;0.20;;;23.10;92.40;;;;;;5034540;28;20047;-72
2022/09/01 11:02:17;;;;;;;0.57;0.30;;;22.80;92.10;;;;;;5034788;28;20132;-73
2022/09/01 11:04:46;;;;;;;0.25;0.15;;;22.60;92.40;;;;;;5034545;28;20073;-73
2022/09/01 11:07:18;;;;;;;0.10;0.10;;;22.90;92.70;;;;;;5034378;28;20037;-71
2022/09/01 11:09:49;;;;;;;0.22;0.15;;;23.50;92.00;;;;;;5018240;28;20369;-72
2022/09/01 11:12:29;;;;;;;0.20;0.20;;;23.70;91.10;;;;;;5034505;28;20838;-71
2022/09/01 11:14:55;;;;;;;0.70;0.40;;;23.90;90.60;;;;;;5034172;28;20041;-71
2022/09/01 11:17:36;;;;;;;0.40;0.40;;;24.30;90.90;;;;;;5034363;28;20040;-71
2022/09/01 11:20:27;;;;;;;0.38;0.25;;;24.90;91.10;;;;;;5034225;28;20048;-71
2022/09/01 11:22:55;;;;;;;0.25;0.20;;;24.70;90.00;;;;;;5034003;28;20095;-71
2022/09/01 11:25:36;;;;;;;0.40;0.28;;;24.20;90.60;;;;;;5034146;28;20072;-72
2022/09/01 11:28:06;;;;;;;0.17;0.17;;;23.90;89.10;;;;;;5033811;28;20080;-71
2022/09/01 11:30:54;;;;;;;0.20;0.20;;;23.60;89.80;;;;;;5017684;28;20052;-71
2022/09/01 11:33:28;;;;;;;0.20;0.20;;;23.20;90.10;;;;;;5017648;28;20053;-71
2022/09/01 11:36:11;;;;;;;0.38;0.25;;;23.20;91.30;;;;;;5033668;28;20630;-72
2022/09/01 11:38:46;;;;;;;0.15;0.10;;;23.40;90.80;;;;;;5033876;28;20115;-72
2022/09/01 11:41:49;;;;;;;0.32;0.20;;;23.30;90.80;;;;;;5033743;28;20124;-72
2022/09/01 11:44:37;;;;;;;0.35;0.30;;;23.10;91.00;;;;;;5024746;28;20052;-72
2022/09/01 11:47:15;;;;;;;0.47;0.20;;;22.90;91.10;;;;;;5033639;28;20044;-71
2022/09/01 11:49:50;;;;;;;0.25;0.20;;;23.40;91.60;;;;;;5033546;28;20111;-71
2022/09/01 11:52:18;;;;;;;0.55;0.30;;;23.80;91.10;;;;;;5017360;28;20044;-72
2022/09/01 11:54:45;;;;;;;0.40;0.40;;;24.20;91.00;;;;;;5033666;28;20049;-72
2022/09/01 11:57:31;;;;;;;0.30;0.20;;;24.50;89.80;;;;;;5033634;28;20056;-72
2022/09/01 11:59:58;;;;;;;0.20;0.10;;;24.50;90.80;;;;;;5016805;28;20065;-72
2022/09/01 12:02:32;;;;;;;0.32;0.20;;;24.10;90.00;;;;;;5016882;28;20052;-72
2022/09/01 12:04:58;;;;;;;0.43;0.30;;;23.70;91.30;;;;;;5033510;28;20049;-71
2022/09/01 12:07:26;;;;;;;0.28;0.22;;;23.30;90.60;;;;;;5033364;28;20136;-71
2022/09/01 12:09:52;;;;;;;0.13;0.10;;;23.20;90.20;;;;;;5032779;28;20076;-71
2022/09/01 12:12:36;;;;;;;0.20;0.20;;;23.10;91.20;;;;;;5033416;28;20083;-72
2022/09/01 12:15:11;;;;;;;0.25;0.20;;;22.90;90.80;;;;;;5033027;28;20400;-72
2022/09/01 12:17:37;;;;;;;0.30;0.25;;;22.70;90.60;;;;;;5016587;28;20045;-71
2022/09/01 12:20:24;;;;;;;1.15;0.50;;;23.00;90.70;;;;;;5032896;28;20083;-72
2022/09/01 12:22:50;;;;;;;0.52;0.30;;;23.30;90.50;;;;;;5033244;28;20041;-71
2022/09/01 12:25:31;;;;;;;1.05;0.40;;;23.10;90.60;;;;;;5032981;28;20477;-72
2022/09/01 12:28:04;;;;;;;0.68;0.40;;;22.90;90.80;;;;;;5033214;28;20037;-72
2022/09/01 12:30:34;;;;;;;0.68;0.50;;;23.40;90.50;;;;;;5032813;28;20545;-72
2022/09/01 12:33:03;;;;;;;0.30;0.30;;;24.00;90.60;;;;;;5017098;28;20128;-72
2022/09/01 12:35:28;;;;;;;0.28;0.22;;;24.60;90.30;;;;;;5032687;28;20061;-72
2022/09/01 12:38:19;;;;;;;0.25;0.20;;;24.50;90.80;;;;;;5032795;28;20063;-72
2022/09/01 12:40:51;;;;;;;0.95;0.30;;;24.00;90.10;;;;;;5016501;28;20040;-72
2022/09/01 12:43:32;;;;;;;0.22;0.20;;;23.70;90.30;;;;;;5016499;28;20045;-72
2022/09/01 12:46:00;;;;;;;0.77;0.30;;;23.40;90.10;;;;;;5016628;28;20365;-72
2022/09/01 12:48:40;;;;;;;0.30;0.20;;;23.70;90.30;;;;;;5000228;28;20048;-72
2022/09/01 12:51:21;;;;;;;0.20;0.20;;;23.80;89.60;;;;;;5032703;28;20127;-72
2022/09/01 12:53:56;;;;;;;0.52;0.35;;;23.70;90.00;;;;;;5032931;28;20392;-72
2022/09/01 12:56:30;;;;;;;0.20;0.13;;;23.40;90.10;;;;;;5032906;28;20041;-72
2022/09/01 12:59:04;;;;;;;0.25;0.20;;;23.60;90.20;;;;;;5032560;28;20125;-71
2022/09/01 13:01:34;;;;;;;1.38;0.20;;;24.00;89.80;;;;;;5032604;28;20037;-71
2022/09/01 13:04:24;;;;;;;0.30;0.20;;;24.60;89.70;;;;;;4999800;28;20048;-71
2022/09/01 13:06:52;;;;;;;0.20;0.10;;;25.10;88.90;;;;;;5032546;28;20496;-72
2022/09/01 13:09:18;;;;;;;0.57;0.20;;;25.10;88.40;;;;;;5032544;28;20052;-72
2022/09/01 13:11:47;;;;;;;0.20;0.10;;;24.70;88.60;;;;;;5032642;28;20041;-72
2022/09/01 13:14:15;;;;;;;0.10;0.10;;;24.20;88.70;;;;;;5032694;28;20051;-72
2022/09/01 13:16:41;;;;;;;0.15;0.15;;;24.00;89.20;;;;;;5032486;28;20045;-71
2022/09/01 13:19:07;;;;;;;0.10;0.10;;;24.40;89.90;;;;;;5032296;28;20084;-72